Strona główna
METAR-TAF:

METAR-TAF

Lotnisko :

Mannheim, Niemcy

Szerokość geograficzna: 49-28-21N, Długość geograficzna: 008-30-56E, wysokość: 100 m

Aktualna obserwacja pogody

Raport powstał 29 minut temu, godzina 12:20 UTC
Wiatr 4 kt z kierunków zmiennych
Temperatura 25°C
Wilgotność 41%
Ciśnienie 1013 hPa
Widzialność 10 km lub więcej
Brak chmur poniżej 1500 m i brak chmur cumulonimbus

METAR: EDFM 171220Z VRB04KT CAVOK 25/11 Q1013

czas: 14:49 (12:49 UTC)

Prognoza

Raport powstał 1 godzina i 49 minut temu, godzina 11:00 UTC
Prognoza ważna od 17 godzina 12 UTC do 17 godzina 21 UTC
Wiatr 3 kt z kierunków zmiennych
Widzialność 10 km lub więcej
Brak chmur poniżej 1500 m i brak chmur cumulonimbus

TAF: EDFM 171100Z 1712/1721 VRB03KT CAVOK

Obserwacja i prognoza pogody dla ponad 4000 lotnisk (raport METAR i TAF).

Dostępne stacje oznaczono żółtymi i czerwonymi punktami na mapie.

Najedź kursorem aby zobaczyć nazwę stacji.

Kliknij aby zobaczyć obserwacje i prognozy pogody.

Aby zmienić mapę: kliknij na zielony przycisk z czarnym krzyżykiem, aby powiększyć; na zielony przycisk z myślnikiem, aby pomniejszyć; na zielone strzałki, aby przejść do map sąsiednich.


METAR-TAF: